Time;durP1;ratioP1;P1;durP2;ratioP2;P2;SDS_P1;SDS_P2;PMS_P1;PMS_P2;Temp;Humidity;BMP_temperature;BMP_pressure;BME280_temperature;BME280_humidity;BME280_pressure;Samples;Min_cycle;Max_cycle;Signal;HPM_P1;HPM_P2
2023/04/29 00:01:09;;;;;;;;;;;;;;;19.64;42.74;95341.47;10233592;28;1890;-61
2023/04/29 00:06:10;;;;;;;;;;;;;;;19.63;42.93;95345.16;10249153;28;2131;-60
2023/04/29 00:11:10;;;;;;;;;;;;;;;19.62;42.79;95343.59;10253928;28;1884;-61
2023/04/29 00:16:11;;;;;;;;;;;;;;;19.61;42.75;95342.03;10237992;28;2154;-61
2023/04/29 00:21:11;;;;;;;;;;;;;;;19.60;42.82;95342.31;10241115;28;2417;-60
2023/04/29 00:26:11;;;;;;;;;;;;;;;19.60;42.93;95337.81;10246971;28;1915;-60
2023/04/29 00:31:12;;;;;;;;;;;;;;;19.60;42.89;95331.81;10252624;28;1813;-61
2023/04/29 00:36:12;;;;;;;;;;;;;;;19.59;42.63;95327.59;10240555;28;1805;-60
2023/04/29 00:41:13;;;;;;;;;;;;;;;19.58;42.72;95339.94;10232740;28;4915;-60
2023/04/29 00:46:13;;;;;;;;;;;;;;;19.57;42.86;95333.13;10240145;28;1978;-60
2023/04/29 00:51:13;;;;;;;;;;;;;;;19.58;42.75;95326.03;10239083;28;1859;-60
2023/04/29 00:56:14;;;;;;;;;;;;;;;19.57;42.54;95320.00;10245227;28;1845;-60
2023/04/29 01:01:15;;;;;;;;;;;;;;;19.55;42.56;95326.56;10237656;28;2178;-59
2023/04/29 01:06:30;;;;;;;;;;;;;;;19.56;42.55;95322.91;10231853;28;1997;-60
2023/04/29 01:11:34;;;;;;;;;;;;;;;19.54;42.61;95325.03;10241210;28;1953;-60
2023/04/29 01:16:46;;;;;;;;;;;;;;;19.53;42.69;95318.19;10236991;28;1993;-61
2023/04/29 01:21:47;;;;;;;;;;;;;;;19.52;42.48;95316.59;10237752;28;1942;-60
2023/04/29 01:26:53;;;;;;;;;;;;;;;19.53;42.70;95315.56;10244607;28;1915;-61
2023/04/29 01:32:12;;;;;;;;;;;;;;;19.51;42.47;95315.84;10241462;28;2084;-60
2023/04/29 01:37:16;;;;;;;;;;;;;;;19.51;42.47;95318.47;10236206;28;2016;-61
2023/04/29 01:42:16;;;;;;;;;;;;;;;19.51;42.61;95315.03;10238827;28;4916;-61
2023/04/29 01:47:16;;;;;;;;;;;;;;;19.51;42.65;95317.69;10248441;28;1931;-60
2023/04/29 01:52:17;;;;;;;;;;;;;;;19.49;42.43;95316.09;10243260;28;2003;-60
2023/04/29 01:57:18;;;;;;;;;;;;;;;19.47;42.54;95304.31;10248363;28;1951;-61
2023/04/29 02:02:20;;;;;;;;;;;;;;;19.48;42.66;95306.66;10241911;28;1925;-60
2023/04/29 02:07:20;;;;;;;;;;;;;;;19.47;42.44;95309.56;10237285;28;2041;-60
2023/04/29 02:12:20;;;;;;;;;;;;;;;19.46;42.60;95308.00;10249721;28;2375;-60
2023/04/29 02:17:21;;;;;;;;;;;;;;;19.45;42.38;95317.72;10231752;28;1998;-60
2023/04/29 02:22:21;;;;;;;;;;;;;;;19.45;42.58;95311.69;10247422;28;2123;-60
2023/04/29 02:27:21;;;;;;;;;;;;;;;19.44;42.39;95313.53;10245821;28;2190;-60
2023/04/29 02:32:22;;;;;;;;;;;;;;;19.44;42.39;95310.91;10254971;28;1973;-60
2023/04/29 02:37:22;;;;;;;;;;;;;;;19.43;42.40;95311.94;10230549;28;1975;-61
2023/04/29 02:42:22;;;;;;;;;;;;;;;19.42;42.49;95307.75;10248306;28;4865;-60
2023/04/29 02:47:22;;;;;;;;;;;;;;;19.43;42.52;95316.44;10246167;28;1917;-60
2023/04/29 02:52:23;;;;;;;;;;;;;;;19.43;42.39;95313.81;10228671;28;1976;-60
2023/04/29 02:57:23;;;;;;;;;;;;;;;19.42;42.64;95320.91;10234428;28;2251;-61
2023/04/29 03:02:23;;;;;;;;;;;;;;;19.39;42.45;95321.44;10240871;28;2002;-60
2023/04/29 03:07:24;;;;;;;;;;;;;;;19.41;42.38;95323.81;10231191;28;2060;-60
2023/04/29 03:12:24;;;;;;;;;;;;;;;19.39;42.54;95334.59;10244766;28;2072;-60
2023/04/29 03:17:25;;;;;;;;;;;;;;;19.40;42.36;95324.88;10246277;28;2090;-60
2023/04/29 03:22:25;;;;;;;;;;;;;;;19.39;42.60;95324.06;10256168;28;1944;-62
2023/04/29 03:27:25;;;;;;;;;;;;;;;19.39;42.54;95324.06;10237288;28;2004;-60
2023/04/29 03:32:26;;;;;;;;;;;;;;;19.36;42.41;95329.91;10246128;28;1938;-60
2023/04/29 03:37:26;;;;;;;;;;;;;;;19.37;42.34;95320.94;10236706;28;2013;-59
2023/04/29 03:42:26;;;;;;;;;;;;;;;19.37;42.41;95325.44;10242314;28;4945;-60
2023/04/29 03:47:26;;;;;;;;;;;;;;;19.36;42.35;95322.00;10234254;28;1986;-60
2023/04/29 03:52:27;;;;;;;;;;;;;;;19.35;42.35;95328.31;10233341;28;2118;-60
2023/04/29 03:57:27;;;;;;;;;;;;;;;19.35;42.51;95330.94;10246007;28;1847;-60
2023/04/29 04:02:27;;;;;;;;;;;;;;;19.36;42.45;95322.00;10243302;28;2036;-60
2023/04/29 04:07:27;;;;;;;;;;;;;;;19.34;42.45;95329.38;10234035;28;1918;-60
2023/04/29 04:12:28;;;;;;;;;;;;;;;19.38;42.40;95337.50;10244018;28;1945;-60
2023/04/29 04:17:28;;;;;;;;;;;;;;;19.42;42.45;95331.41;10233863;28;1974;-61
2023/04/29 04:22:29;;;;;;;;;;;;;;;19.48;42.36;95338.19;10246653;28;1925;-60
2023/04/29 04:27:29;;;;;;;;;;;;;;;19.56;42.39;95343.94;10233976;28;1985;-60
2023/04/29 04:32:29;;;;;;;;;;;;;;;19.63;42.33;95344.38;10246632;28;1879;-60
2023/04/29 04:37:30;;;;;;;;;;;;;;;19.72;42.21;95353.25;10220128;28;1987;-60
2023/04/29 04:42:30;;;;;;;;;;;;;;;19.78;42.24;95350.31;10228677;28;4687;-60
2023/04/29 04:47:30;;;;;;;;;;;;;;;19.89;42.11;95350.97;10231899;28;2040;-60
2023/04/29 04:52:31;;;;;;;;;;;;;;;19.94;41.94;95351.72;10229420;28;2073;-60
2023/04/29 04:57:31;;;;;;;;;;;;;;;20.03;42.01;95354.53;10244445;28;1932;-60
2023/04/29 05:02:31;;;;;;;;;;;;;;;20.07;41.86;95361.56;10243955;28;2076;-60
2023/04/29 05:07:32;;;;;;;;;;;;;;;20.12;41.92;95368.63;10222379;28;2124;-60
2023/04/29 05:12:34;;;;;;;;;;;;;;;20.16;41.74;95359.09;10227993;28;1997;-60
2023/04/29 05:17:35;;;;;;;;;;;;;;;20.25;41.76;95368.00;10239058;28;2298;-60
2023/04/29 05:22:35;;;;;;;;;;;;;;;20.28;41.60;95370.84;10245333;28;1919;-60
2023/04/29 05:27:36;;;;;;;;;;;;;;;20.30;41.67;95367.91;10235838;28;2008;-60
2023/04/29 05:32:36;;;;;;;;;;;;;;;20.37;41.55;95375.47;10232003;28;1995;-60
2023/04/29 05:37:36;;;;;;;;;;;;;;;20.40;41.81;95381.00;10237228;28;1937;-60
2023/04/29 05:42:37;;;;;;;;;;;;;;;20.43;41.51;95390.94;10241386;28;4882;-60
2023/04/29 05:47:37;;;;;;;;;;;;;;;20.48;41.56;95398.00;10245075;28;2023;-61
2023/04/29 05:52:37;;;;;;;;;;;;;;;20.50;41.45;95401.16;10236200;28;1921;-61
2023/04/29 05:57:38;;;;;;;;;;;;;;;20.53;41.21;95404.00;10240058;28;2403;-62
2023/04/29 06:02:41;;;;;;;;;;;;;;;20.56;41.37;95411.34;10249053;28;2029;-60
2023/04/29 06:07:42;;;;;;;;;;;;;;;20.56;41.49;95416.59;10245528;28;2054;-62
2023/04/29 06:12:42;;;;;;;;;;;;;;;20.63;42.34;95424.94;10231271;28;1972;-61
2023/04/29 06:17:43;;;;;;;;;;;;;;;20.66;42.94;95421.75;10237897;28;1969;-61
2023/04/29 06:22:43;;;;;;;;;;;;;;;20.69;43.45;95429.06;10229280;28;2198;-61
2023/04/29 06:27:43;;;;;;;;;;;;;;;20.69;43.84;95436.97;10235066;28;2025;-61
2023/04/29 06:32:43;;;;;;;;;;;;;;;20.64;44.24;95437.06;10240894;28;1931;-62
2023/04/29 06:37:44;;;;;;;;;;;;;;;20.59;44.58;95452.09;10239128;28;1989;-62
2023/04/29 06:42:44;;;;;;;;;;;;;;;20.58;44.72;95451.34;10216827;28;4918;-62
2023/04/29 06:47:45;;;;;;;;;;;;;;;20.51;44.96;95452.72;10242863;28;1977;-62
2023/04/29 06:52:45;;;;;;;;;;;;;;;20.50;45.23;95457.22;10234027;28;2312;-62
2023/04/29 06:57:45;;;;;;;;;;;;;;;20.43;45.46;95448.06;10247698;28;2183;-61
2023/04/29 07:02:46;;;;;;;;;;;;;;;20.39;45.79;95455.75;10239001;28;1929;-62
2023/04/29 07:07:46;;;;;;;;;;;;;;;20.34;45.84;95453.16;10227689;28;2011;-61
2023/04/29 07:12:47;;;;;;;;;;;;;;;20.26;46.35;95453.75;10239335;28;2202;-62
2023/04/29 07:17:47;;;;;;;;;;;;;;;20.25;46.54;95458.28;10225801;28;1977;-61
2023/04/29 07:22:47;;;;;;;;;;;;;;;20.29;46.23;95455.84;10247877;28;1991;-61
2023/04/29 07:27:47;;;;;;;;;;;;;;;20.25;46.30;95455.63;10210973;28;2100;-62
2023/04/29 07:32:48;;;;;;;;;;;;;;;20.27;46.21;95460.63;10243761;28;2018;-63
2023/04/29 07:37:48;;;;;;;;;;;;;;;20.27;45.94;95457.97;10231048;28;1973;-63
2023/04/29 07:42:48;;;;;;;;;;;;;;;20.20;46.56;95454.88;10239476;28;4968;-61
2023/04/29 07:47:48;;;;;;;;;;;;;;;20.18;46.56;95462.25;10246452;28;2037;-60
2023/04/29 07:52:49;;;;;;;;;;;;;;;20.20;46.53;95462.78;10244496;28;1961;-60
2023/04/29 07:57:49;;;;;;;;;;;;;;;20.17;46.17;95471.22;10234415;28;2034;-60
2023/04/29 08:02:50;;;;;;;;;;;;;;;20.19;46.03;95469.91;10236756;28;1990;-60
2023/04/29 08:07:51;;;;;;;;;;;;;;;20.24;45.42;95461.16;10236615;28;2004;-61
2023/04/29 08:12:51;;;;;;;;;;;;;;;20.16;45.59;95469.63;10233357;28;2085;-60
2023/04/29 08:17:51;;;;;;;;;;;;;;;20.15;45.61;95463.56;10229807;28;1978;-60
2023/04/29 08:22:52;;;;;;;;;;;;;;;20.16;45.48;95464.38;10231536;28;1952;-60
2023/04/29 08:27:52;;;;;;;;;;;;;;;20.11;45.71;95459.94;10242945;28;2009;-62
2023/04/29 08:32:52;;;;;;;;;;;;;;;20.11;45.95;95461.78;10240879;28;2027;-60
2023/04/29 08:37:53;;;;;;;;;;;;;;;20.14;45.97;95456.75;10239510;28;1956;-60
2023/04/29 08:42:53;;;;;;;;;;;;;;;20.16;46.13;95464.38;10234517;28;2174;-60
2023/04/29 08:47:55;;;;;;;;;;;;;;;20.15;46.32;95455.69;10242063;28;2132;-59
2023/04/29 08:52:55;;;;;;;;;;;;;;;20.18;46.37;95449.09;10240219;28;2098;-60
2023/04/29 08:57:55;;;;;;;;;;;;;;;20.16;46.31;95449.38;10233381;28;1981;-60
2023/04/29 09:02:56;;;;;;;;;;;;;;;20.16;46.24;95457.25;10237881;28;1981;-60
2023/04/29 09:07:58;;;;;;;;;;;;;;;20.17;46.33;95458.06;10239629;28;1997;-59
2023/04/29 09:12:58;;;;;;;;;;;;;;;20.19;46.48;95463.81;10241985;28;2037;-60
2023/04/29 09:17:58;;;;;;;;;;;;;;;20.18;46.61;95465.66;10234547;28;1985;-61
2023/04/29 09:23:00;;;;;;;;;;;;;;;20.17;46.29;95460.69;10235598;28;1970;-60
2023/04/29 09:28:13;;;;;;;;;;;;;;;20.15;46.65;95463.56;10245755;28;2001;-60
2023/04/29 09:33:15;;;;;;;;;;;;;;;20.15;46.42;95463.56;10241969;28;2067;-60
2023/04/29 09:38:15;;;;;;;;;;;;;;;20.13;46.21;95457.81;10239605;28;2092;-60
2023/04/29 09:43:17;;;;;;;;;;;;;;;20.13;46.35;95457.03;10236802;28;4878;-60
2023/04/29 09:48:17;;;;;;;;;;;;;;;20.12;46.38;95458.88;10241671;28;1930;-60
2023/04/29 09:53:26;;;;;;;;;;;;;;;20.10;46.04;95454.94;10230430;28;1906;-60
2023/04/29 09:58:32;;;;;;;;;;;;;;;20.10;46.08;95452.31;10241478;28;1946;-60
2023/04/29 10:03:33;;;;;;;;;;;;;;;20.11;46.10;95446.75;10233332;28;2293;-61
2023/04/29 10:08:34;;;;;;;;;;;;;;;20.08;45.99;95460.50;10235258;28;2124;-60
2023/04/29 10:13:34;;;;;;;;;;;;;;;20.08;46.10;95451.81;10236793;28;2285;-60
2023/04/29 10:18:36;;;;;;;;;;;;;;;20.07;46.02;95466.03;10239684;28;2103;-60
2023/04/29 10:23:36;;;;;;;;;;;;;;;20.07;46.17;95460.78;10238050;28;2352;-60
2023/04/29 10:28:37;;;;;;;;;;;;;;;20.07;46.18;95450.25;10240609;28;1981;-60
2023/04/29 10:33:37;;;;;;;;;;;;;;;20.08;45.88;95451.81;10235752;28;2296;-61
2023/04/29 10:38:49;;;;;;;;;;;;;;;20.08;45.51;95452.59;10242291;28;2061;-61
2023/04/29 10:43:50;;;;;;;;;;;;;;;20.02;46.40;95448.44;10241807;28;4874;-62
2023/04/29 10:49:03;;;;;;;;;;;;;;;20.06;45.94;95443.41;10246294;28;2111;-61
2023/04/29 10:54:04;;;;;;;;;;;;;;;20.03;45.64;95439.47;10241425;28;1929;-61
2023/04/29 10:59:04;;;;;;;;;;;;;;;20.04;45.52;95435.81;10234641;28;1953;-61
2023/04/29 11:04:05;;;;;;;;;;;;;;;20.01;46.06;95441.59;10230098;28;2198;-61
2023/04/29 11:09:23;;;;;;;;;;;;;;;20.05;46.11;95433.97;10235601;28;1961;-61
2023/04/29 11:14:24;;;;;;;;;;;;;;;20.05;46.48;95436.59;10240808;28;1954;-62
2023/04/29 11:19:25;;;;;;;;;;;;;;;20.04;46.52;95429.75;10247806;28;1960;-62
2023/04/29 11:24:26;;;;;;;;;;;;;;;20.06;46.23;95432.88;10232251;28;1954;-61
2023/04/29 11:29:27;;;;;;;;;;;;;;;20.06;46.24;95438.16;10239686;28;1996;-61
2023/04/29 11:34:28;;;;;;;;;;;;;;;20.05;46.06;95449.75;10236556;28;2250;-61
2023/04/29 11:39:28;;;;;;;;;;;;;;;20.03;46.17;95444.75;10233871;28;1892;-61
2023/04/29 11:44:28;;;;;;;;;;;;;;;20.04;46.00;95440.28;10235360;28;5069;-61
2023/04/29 11:49:30;;;;;;;;;;;;;;;20.03;46.14;95450.00;10228379;28;2266;-61
2023/04/29 11:54:30;;;;;;;;;;;;;;;20.05;45.81;95452.38;10232406;28;1962;-59
2023/04/29 11:59:31;;;;;;;;;;;;;;;20.04;45.85;95451.59;10223754;28;2040;-61
2023/04/29 12:04:31;;;;;;;;;;;;;;;20.05;45.72;95461.03;10230691;28;1980;-61
2023/04/29 12:09:52;;;;;;;;;;;;;;;20.04;45.77;95463.94;10233494;28;1837;-61
2023/04/29 12:14:52;;;;;;;;;;;;;;;20.04;46.04;95450.78;10230145;28;1912;-61
2023/04/29 12:19:53;;;;;;;;;;;;;;;20.02;45.81;95458.97;10231087;28;1887;-61
2023/04/29 12:24:53;;;;;;;;;;;;;;;20.05;45.82;95453.13;10230813;28;2094;-59
2023/04/29 12:29:53;;;;;;;;;;;;;;;20.05;45.60;95452.38;10239835;28;1902;-59
2023/04/29 12:34:53;;;;;;;;;;;;;;;20.03;45.66;95465.78;10247122;28;1884;-60
2023/04/29 12:39:54;;;;;;;;;;;;;;;20.04;45.61;95467.38;10238140;28;1912;-60
2023/04/29 12:44:54;;;;;;;;;;;;;;;20.01;45.55;95462.66;10243278;28;2027;-61
2023/04/29 12:49:55;;;;;;;;;;;;;;;20.03;45.54;95463.16;10228406;28;1907;-60
2023/04/29 12:54:55;;;;;;;;;;;;;;;20.03;45.59;95470.28;10231767;28;1980;-60
2023/04/29 12:59:56;;;;;;;;;;;;;;;20.04;45.64;95466.59;10226191;28;2143;-60
2023/04/29 13:04:56;;;;;;;;;;;;;;;20.01;45.47;95462.66;10225898;28;1902;-61
2023/04/29 13:09:56;;;;;;;;;;;;;;;20.02;45.64;95468.69;10230250;28;2178;-60
2023/04/29 13:14:56;;;;;;;;;;;;;;;20.04;45.52;95463.94;10225454;28;1895;-60
2023/04/29 13:19:57;;;;;;;;;;;;;;;20.01;45.35;95467.16;10232176;28;1902;-60
2023/04/29 13:24:57;;;;;;;;;;;;;;;20.03;45.29;95463.16;10240458;28;2151;-60
2023/04/29 13:29:57;;;;;;;;;;;;;;;20.04;45.48;95456.06;10230890;28;1894;-62
2023/04/29 13:34:57;;;;;;;;;;;;;;;20.04;45.55;95472.63;10232900;28;1968;-62
2023/04/29 13:39:58;;;;;;;;;;;;;;;20.07;45.93;95468.69;10241382;28;4884;-62
2023/04/29 13:44:58;;;;;;;;;;;;;;;20.09;46.16;95469.19;10242972;28;1906;-62
2023/04/29 13:49:58;;;;;;;;;;;;;;;20.12;46.19;95458.09;10241247;28;1909;-62
2023/04/29 13:54:59;;;;;;;;;;;;;;;20.17;46.02;95460.69;10237662;28;1889;-63
2023/04/29 13:59:59;;;;;;;;;;;;;;;20.22;46.37;95463.28;10239202;28;1952;-63
2023/04/29 14:04:59;;;;;;;;;;;;;;;20.22;46.24;95463.28;10242247;28;1911;-61
2023/04/29 14:09:59;;;;;;;;;;;;;;;20.24;46.14;95466.41;10240277;28;1816;-61
2023/04/29 14:15:00;;;;;;;;;;;;;;;20.26;45.98;95464.28;10240423;28;1982;-61
2023/04/29 14:20:00;;;;;;;;;;;;;;;20.28;46.12;95464.81;10238781;28;1887;-61
2023/04/29 14:25:00;;;;;;;;;;;;;;;20.29;46.10;95479.53;10241596;28;1976;-61
2023/04/29 14:30:01;;;;;;;;;;;;;;;20.32;45.96;95472.94;10246415;28;1839;-60
2023/04/29 14:35:01;;;;;;;;;;;;;;;20.35;45.82;95482.91;10249938;28;1833;-61
2023/04/29 14:40:01;;;;;;;;;;;;;;;20.36;45.77;95487.88;10240639;28;5009;-58
2023/04/29 14:45:02;;;;;;;;;;;;;;;20.36;45.94;95495.03;10235526;28;1906;-61
2023/04/29 14:50:03;;;;;;;;;;;;;;;20.38;45.79;95498.91;10235605;28;1924;-61
2023/04/29 14:55:03;;;;;;;;;;;;;;;20.42;46.39;95501.81;10235205;28;1891;-61
2023/04/29 15:00:04;;;;;;;;;;;;;;;20.47;47.21;95507.00;10241667;28;1905;-60
2023/04/29 15:05:04;;;;;;;;;;;;;;;20.51;47.42;95511.44;10230357;28;1901;-61
2023/04/29 15:10:08;;;;;;;;;;;;;;;20.52;47.64;95502.50;10234707;28;1860;-61
2023/04/29 15:15:08;;;;;;;;;;;;;;;20.54;47.74;95516.16;10238014;28;1903;-61
2023/04/29 15:20:09;;;;;;;;;;;;;;;20.58;47.89;95516.38;10224851;28;2278;-61
2023/04/29 15:25:09;;;;;;;;;;;;;;;20.59;48.16;95525.84;10233737;28;1974;-61
2023/04/29 15:30:10;;;;;;;;;;;;;;;20.58;47.96;95530.34;10221785;28;2072;-61
2023/04/29 15:35:11;;;;;;;;;;;;;;;20.58;48.19;95534.81;10223692;28;1896;-62
2023/04/29 15:40:11;;;;;;;;;;;;;;;20.59;48.10;95541.63;10223418;28;4829;-61
2023/04/29 15:45:12;;;;;;;;;;;;;;;20.56;48.02;95548.28;10232002;28;1977;-61
2023/04/29 15:50:12;;;;;;;;;;;;;;;20.57;48.07;95543.78;10222366;28;2038;-62
2023/04/29 15:55:12;;;;;;;;;;;;;;;20.54;48.22;95553.03;10240745;28;1880;-62
2023/04/29 16:00:12;;;;;;;;;;;;;;;20.53;48.29;95553.28;10238339;28;1937;-62
2023/04/29 16:05:13;;;;;;;;;;;;;;;20.52;48.46;95557.00;10239037;28;1918;-62
2023/04/29 16:10:13;;;;;;;;;;;;;;;20.50;48.26;95570.44;10238243;28;1902;-62
2023/04/29 16:15:13;;;;;;;;;;;;;;;20.50;48.04;95573.09;10239598;28;2011;-62
2023/04/29 16:20:13;;;;;;;;;;;;;;;20.49;48.36;95576.75;10234807;28;1970;-61
2023/04/29 16:25:14;;;;;;;;;;;;;;;20.46;48.27;95577.34;10237547;28;1978;-61
2023/04/29 16:30:14;;;;;;;;;;;;;;;20.47;48.21;95597.31;10227465;28;2143;-61
2023/04/29 16:35:15;;;;;;;;;;;;;;;20.45;48.24;95586.28;10224742;28;1988;-61
2023/04/29 16:40:15;;;;;;;;;;;;;;;20.44;47.91;95597.88;10228024;28;4888;-61
2023/04/29 16:45:16;;;;;;;;;;;;;;;20.41;48.20;95603.69;10230382;28;2005;-61
2023/04/29 16:50:17;;;;;;;;;;;;;;;20.42;48.16;95601.84;10247653;28;1943;-60
2023/04/29 16:55:17;;;;;;;;;;;;;;;20.40;48.22;95604.75;10253266;28;1820;-61
2023/04/29 17:00:18;;;;;;;;;;;;;;;20.40;48.31;95611.88;10245267;28;2102;-61
2023/04/29 17:05:19;;;;;;;;;;;;;;;20.38;48.17;95614.75;10236128;28;1987;-61
2023/04/29 17:10:20;;;;;;;;;;;;;;;20.37;47.69;95623.72;10227627;28;2020;-62
2023/04/29 17:15:20;;;;;;;;;;;;;;;20.36;47.76;95627.41;10244898;28;1931;-62
2023/04/29 17:20:20;;;;;;;;;;;;;;;20.34;47.39;95634.78;10219716;28;1899;-62
2023/04/29 17:25:21;;;;;;;;;;;;;;;20.32;47.55;95639.53;10249200;28;1973;-62
2023/04/29 17:30:21;;;;;;;;;;;;;;;20.32;47.35;95647.44;10239084;28;2091;-61
2023/04/29 17:35:22;;;;;;;;;;;;;;;20.29;47.47;95642.75;10225220;28;2232;-62
2023/04/29 17:40:22;;;;;;;;;;;;;;;20.28;47.36;95654.31;10237130;28;4814;-61
2023/04/29 17:45:23;;;;;;;;;;;;;;;20.24;47.23;95659.34;10244769;28;1973;-61
2023/04/29 17:50:24;;;;;;;;;;;;;;;20.23;47.23;95665.69;10238775;28;1863;-61
2023/04/29 17:55:24;;;;;;;;;;;;;;;20.26;47.58;95665.13;10234642;28;1924;-60
2023/04/29 18:00:24;;;;;;;;;;;;;;;20.25;47.74;95673.31;10228345;28;1903;-61
2023/04/29 18:05:25;;;;;;;;;;;;;;;20.26;47.87;95677.50;10226336;28;2244;-61
2023/04/29 18:10:25;;;;;;;;;;;;;;;20.31;48.98;95684.56;10237689;28;2297;-60
2023/04/29 18:15:25;;;;;;;;;;;;;;;20.32;48.88;95689.56;10235842;28;1966;-60
2023/04/29 18:20:26;;;;;;;;;;;;;;;20.37;49.06;95694.00;10244896;28;1836;-60
2023/04/29 18:25:26;;;;;;;;;;;;;;;20.38;49.21;95698.22;10239918;28;1956;-61
2023/04/29 18:30:26;;;;;;;;;;;;;;;20.39;49.18;95702.44;10242053;28;1940;-60
2023/04/29 18:35:27;;;;;;;;;;;;;;;20.40;49.05;95710.06;10249705;28;1938;-60
2023/04/29 18:40:27;;;;;;;;;;;;;;;20.40;48.79;95717.19;10236373;28;6321;-60
2023/04/29 18:45:27;;;;;;;;;;;;;;;20.39;49.11;95719.00;10236723;28;5510;-60
2023/04/29 18:50:27;;;;;;;;;;;;;;;20.39;48.97;95721.66;10239381;28;5307;-61
2023/04/29 18:55:29;;;;;;;;;;;;;;;20.40;48.90;95725.88;10253637;28;1981;-61
2023/04/29 19:00:29;;;;;;;;;;;;;;;20.42;48.26;95739.53;10257056;28;5510;-60
2023/04/29 19:05:30;;;;;;;;;;;;;;;20.40;48.46;95748.78;10246034;28;1914;-60
2023/04/29 19:10:30;;;;;;;;;;;;;;;20.40;48.66;95744.31;10249982;28;1496;-59
2023/04/29 19:15:31;;;;;;;;;;;;;;;20.41;48.75;95748.50;10243487;28;5475;-59
2023/04/29 19:20:31;;;;;;;;;;;;;;;20.42;48.65;95754.56;10244458;28;1560;-61
2023/04/29 19:25:31;;;;;;;;;;;;;;;20.42;48.64;95768.50;10237560;28;1923;-60
2023/04/29 19:30:32;;;;;;;;;;;;;;;20.44;48.78;95762.97;10252269;28;1560;-60
2023/04/29 19:35:32;;;;;;;;;;;;;;;20.44;48.61;95761.13;10251200;28;1566;-60
2023/04/29 19:40:32;;;;;;;;;;;;;;;20.46;48.42;95769.53;10243312;28;1625;-59
2023/04/29 19:45:33;;;;;;;;;;;;;;;20.45;48.32;95775.84;10250368;28;1919;-60
2023/04/29 19:50:33;;;;;;;;;;;;;;;20.46;48.51;95774.81;10247777;28;8214;-61
2023/04/29 19:55:33;;;;;;;;;;;;;;;20.46;48.34;95774.81;10250813;28;1466;-62
2023/04/29 20:00:34;;;;;;;;;;;;;;;20.45;48.05;95780.31;10255094;28;1504;-61
2023/04/29 20:05:34;;;;;;;;;;;;;;;20.44;48.08;95778.75;10247656;28;1922;-61
2023/04/29 20:10:35;;;;;;;;;;;;;;;20.45;48.03;95783.75;10247930;28;1461;-62
2023/04/29 20:15:35;;;;;;;;;;;;;;;20.43;48.20;95785.88;10243643;28;1489;-59
2023/04/29 20:20:35;;;;;;;;;;;;;;;20.43;47.78;95791.13;10251472;28;1493;-61
2023/04/29 20:25:36;;;;;;;;;;;;;;;20.41;47.86;95781.91;10250395;28;1977;-62
2023/04/29 20:30:36;;;;;;;;;;;;;;;20.42;47.60;95786.16;10260200;28;1477;-61
2023/04/29 20:35:37;;;;;;;;;;;;;;;20.41;47.55;95784.56;10250735;28;1495;-61
2023/04/29 20:40:37;;;;;;;;;;;;;;;20.40;47.58;95794.31;10250455;28;1643;-61
2023/04/29 20:45:37;;;;;;;;;;;;;;;20.39;47.46;95781.41;10253678;28;2100;-62
2023/04/29 20:50:37;;;;;;;;;;;;;;;20.38;47.66;95791.13;10257755;28;5157;-61
2023/04/29 20:55:38;;;;;;;;;;;;;;;20.38;47.36;95798.28;10269040;28;1545;-61
2023/04/29 21:00:39;;;;;;;;;;;;;;;20.37;47.61;95797.47;10250031;28;1498;-61
2023/04/29 21:05:39;;;;;;;;;;;;;;;20.38;47.50;95801.66;10240944;28;1956;-61
2023/04/29 21:10:40;;;;;;;;;;;;;;;20.37;47.28;95802.75;10236793;28;1896;-60
2023/04/29 21:15:40;;;;;;;;;;;;;;;20.36;47.29;95806.41;10230391;28;1927;-61
2023/04/29 21:20:40;;;;;;;;;;;;;;;20.36;47.16;95798.53;10240417;28;1912;-59
2023/04/29 21:25:40;;;;;;;;;;;;;;;20.35;47.06;95802.22;10237574;28;2075;-60
2023/04/29 21:30:41;;;;;;;;;;;;;;;20.35;47.14;95812.75;10242101;28;1875;-61
2023/04/29 21:35:42;;;;;;;;;;;;;;;20.34;47.11;95813.03;10238494;28;1904;-59
2023/04/29 21:40:42;;;;;;;;;;;;;;;20.32;46.72;95810.66;10238303;28;1931;-61
2023/04/29 21:45:42;;;;;;;;;;;;;;;20.30;46.70;95818.03;10243804;28;2025;-60
2023/04/29 21:50:43;;;;;;;;;;;;;;;20.30;46.53;95822.53;10233069;28;5141;-61
2023/04/29 21:55:43;;;;;;;;;;;;;;;20.27;46.38;95822.00;10234508;28;2100;-62
2023/04/29 22:00:56;;;;;;;;;;;;;;;20.24;46.64;95819.91;10243849;28;1832;-63
2023/04/29 22:05:57;;;;;;;;;;;;;;;20.22;46.22;95826.50;10238956;28;2160;-60
2023/04/29 22:10:58;;;;;;;;;;;;;;;20.20;46.21;95826.78;10246195;28;1923;-62
2023/04/29 22:15:58;;;;;;;;;;;;;;;20.19;46.30;95827.00;10238864;28;1890;-61
2023/04/29 22:20:58;;;;;;;;;;;;;;;20.18;46.31;95825.44;10242360;28;1809;-61
2023/04/29 22:25:58;;;;;;;;;;;;;;;20.15;45.99;95829.38;10229263;28;1919;-61
2023/04/29 22:30:59;;;;;;;;;;;;;;;20.14;45.94;95829.66;10235050;28;2055;-61
2023/04/29 22:35:59;;;;;;;;;;;;;;;20.14;46.13;95829.66;10228690;28;2000;-60
2023/04/29 22:41:00;;;;;;;;;;;;;;;20.10;45.94;95831.25;10234394;28;2070;-61
2023/04/29 22:46:00;;;;;;;;;;;;;;;20.09;45.78;95835.72;10237197;28;1920;-61
2023/04/29 22:51:03;;;;;;;;;;;;;;;20.09;45.74;95832.31;10249848;28;5163;-61
2023/04/29 22:56:04;;;;;;;;;;;;;;;20.07;45.71;95827.28;10247665;28;1487;-60
2023/04/29 23:01:04;;;;;;;;;;;;;;;20.07;45.63;95826.53;10251526;28;1804;-61
2023/04/29 23:06:05;;;;;;;;;;;;;;;20.07;45.60;95831.78;10230985;28;2060;-61
2023/04/29 23:11:05;;;;;;;;;;;;;;;20.05;45.72;95826.00;10230807;28;1899;-61
2023/04/29 23:16:06;;;;;;;;;;;;;;;20.02;45.55;95823.91;10235319;28;1910;-61
2023/04/29 23:21:06;;;;;;;;;;;;;;;20.02;45.82;95831.78;10234304;28;1879;-61
2023/04/29 23:26:06;;;;;;;;;;;;;;;20.01;45.51;95827.59;10236779;28;1902;-61
2023/04/29 23:31:07;;;;;;;;;;;;;;;20.01;45.75;95836.25;10233321;28;1964;-61
2023/04/29 23:36:07;;;;;;;;;;;;;;;20.00;45.27;95826.00;10227195;28;2080;-60
2023/04/29 23:41:07;;;;;;;;;;;;;;;20.00;45.32;95821.53;10233357;28;1844;-61
2023/04/29 23:46:08;;;;;;;;;;;;;;;19.98;45.27;95814.97;10233620;28;1981;-60
2023/04/29 23:51:09;;;;;;;;;;;;;;;19.97;45.35;95816.81;10231397;28;5106;-61
2023/04/29 23:56:09;;;;;;;;;;;;;;;19.96;45.34;95809.19;10223779;28;1990;-60
